Time;durP1;ratioP1;P1;durP2;ratioP2;P2;SDS_P1;SDS_P2;PMS_P1;PMS_P2;Temp;Humidity;BMP_temperature;BMP_pressure;BME280_temperature;BME280_humidity;BME280_pressure;Samples;Min_cycle;Max_cycle;Signal;HPM_P1;HPM_P2
2024/01/10 00:01:17;;;;;;;16.30;9.90;;;0.10;85.80;;;;;;5009424;28;20250;-67
2024/01/10 00:03:43;;;;;;;15.40;8.90;;;0.20;85.90;;;;;;5009945;28;20696;-65
2024/01/10 00:06:10;;;;;;;18.43;10.67;;;0.20;85.90;;;;;;5019269;28;20244;-65
2024/01/10 00:08:36;;;;;;;16.47;9.90;;;0.20;86.00;;;;;;5012651;28;20439;-65
2024/01/10 00:11:03;;;;;;;19.50;10.20;;;0.20;86.00;;;;;;5011344;28;20432;-65
2024/01/10 00:13:29;;;;;;;17.97;10.33;;;0.20;86.00;;;;;;5014191;28;21539;-66
2024/01/10 00:15:55;;;;;;;14.70;8.97;;;0.20;86.20;;;;;;5014025;28;20446;-66
2024/01/10 00:18:21;;;;;;;16.53;10.40;;;0.20;86.80;;;;;;5013800;28;20439;-66
2024/01/10 00:20:47;;;;;;;18.93;10.67;;;0.20;87.10;;;;;;5012354;28;20995;-65
2024/01/10 00:23:13;;;;;;;12.47;8.33;;;0.20;86.90;;;;;;5011782;28;20211;-65
2024/01/10 00:25:39;;;;;;;18.70;9.40;;;0.20;86.80;;;;;;5012191;28;20518;-65
2024/01/10 00:28:05;;;;;;;18.10;9.70;;;0.20;87.10;;;;;;5012163;28;20882;-65
2024/01/10 00:30:30;;;;;;;14.90;9.70;;;0.30;87.40;;;;;;5007020;28;20279;-65
2024/01/10 00:32:56;;;;;;;18.30;10.00;;;0.20;87.30;;;;;;5014698;28;20842;-65
2024/01/10 00:35:21;;;;;;;19.57;10.47;;;0.30;87.80;;;;;;5015463;28;20184;-65
2024/01/10 00:37:47;;;;;;;19.73;10.50;;;0.30;87.80;;;;;;5013334;28;20188;-65
2024/01/10 00:40:13;;;;;;;18.43;9.83;;;0.30;87.70;;;;;;5009427;28;20215;-65
2024/01/10 00:42:38;;;;;;;22.70;10.43;;;0.30;87.70;;;;;;5017108;28;20195;-65
2024/01/10 00:45:04;;;;;;;15.90;10.10;;;0.30;88.10;;;;;;5014408;28;20242;-65
2024/01/10 00:47:30;;;;;;;15.00;9.33;;;0.30;88.00;;;;;;5015977;28;20243;-65
2024/01/10 00:49:56;;;;;;;19.90;10.80;;;0.30;88.10;;;;;;5018115;28;20608;-65
2024/01/10 00:52:22;;;;;;;18.57;10.10;;;0.30;87.90;;;;;;5011022;28;20203;-65
2024/01/10 00:54:47;;;;;;;16.80;9.60;;;0.30;88.00;;;;;;5016361;28;20829;-65
2024/01/10 00:57:13;;;;;;;17.83;10.93;;;0.30;88.00;;;;;;5012049;28;20678;-65
2024/01/10 00:59:38;;;;;;;16.37;11.03;;;0.20;87.70;;;;;;5013587;28;20398;-65
2024/01/10 01:02:04;;;;;;;16.00;9.77;;;0.20;87.80;;;;;;5014989;28;20678;-65
2024/01/10 01:04:30;;;;;;;18.30;8.93;;;0.20;87.70;;;;;;5012884;28;20717;-65
2024/01/10 01:06:55;;;;;;;22.50;10.83;;;0.20;87.90;;;;;;5011569;28;20187;-66
2024/01/10 01:09:21;;;;;;;15.90;9.40;;;0.20;88.00;;;;;;5006653;28;20649;-66
2024/01/10 01:11:46;;;;;;;15.80;9.53;;;0.20;88.00;;;;;;5013389;28;20678;-66
2024/01/10 01:14:12;;;;;;;16.30;9.53;;;0.20;87.90;;;;;;5010529;28;20218;-66
2024/01/10 01:16:37;;;;;;;15.17;9.60;;;0.30;88.00;;;;;;5009785;28;20177;-65
2024/01/10 01:19:03;;;;;;;17.63;10.60;;;0.20;87.80;;;;;;5013725;28;20199;-65
2024/01/10 01:21:28;;;;;;;18.80;10.07;;;0.20;87.80;;;;;;5019604;28;20182;-65
2024/01/10 01:23:54;;;;;;;15.93;10.03;;;0.30;88.00;;;;;;5009966;28;20200;-65
2024/01/10 01:26:20;;;;;;;16.70;9.90;;;0.20;87.90;;;;;;5012582;28;20192;-66
2024/01/10 01:28:45;;;;;;;18.10;9.80;;;0.20;88.00;;;;;;5013881;28;20673;-65
2024/01/10 01:31:11;;;;;;;18.67;10.20;;;0.20;88.10;;;;;;5011274;28;20184;-66
2024/01/10 01:33:38;;;;;;;17.63;11.50;;;0.20;88.40;;;;;;5017333;28;20308;-66
2024/01/10 01:36:05;;;;;;;13.83;10.10;;;0.20;88.40;;;;;;5016703;28;20688;-66
2024/01/10 01:38:30;;;;;;;19.60;10.40;;;0.20;88.30;;;;;;5018354;28;20511;-66
2024/01/10 01:40:56;;;;;;;19.60;9.80;;;0.20;88.20;;;;;;5018049;28;20536;-66
2024/01/10 01:43:26;;;;;;;19.23;10.43;;;0.20;88.10;;;;;;5019012;28;20196;-66
2024/01/10 01:45:56;;;;;;;20.13;9.90;;;0.20;88.20;;;;;;5009914;28;20191;-66
2024/01/10 01:48:23;;;;;;;15.50;10.80;;;0.20;88.30;;;;;;5010286;28;20480;-66
2024/01/10 01:50:54;;;;;;;21.30;10.90;;;0.20;88.30;;;;;;5015454;28;20500;-66
2024/01/10 01:53:20;;;;;;;18.10;10.27;;;0.10;88.30;;;;;;5009496;28;20537;-66
2024/01/10 01:55:46;;;;;;;18.30;10.60;;;0.10;88.20;;;;;;5017025;28;20541;-66
2024/01/10 01:58:12;;;;;;;22.40;12.17;;;0.10;88.40;;;;;;5014429;28;20434;-66
2024/01/10 02:00:38;;;;;;;20.93;11.13;;;0.10;88.40;;;;;;5006394;28;20336;-66
2024/01/10 02:03:06;;;;;;;21.90;11.13;;;0.10;88.50;;;;;;5018098;28;20423;-66
2024/01/10 02:05:32;;;;;;;19.07;11.20;;;0.10;88.50;;;;;;5012810;28;20472;-66
2024/01/10 02:07:58;;;;;;;19.30;10.73;;;0.10;88.50;;;;;;5011910;28;20455;-66
2024/01/10 02:10:23;;;;;;;21.73;11.07;;;0.10;88.50;;;;;;5014082;28;20265;-66
2024/01/10 02:12:49;;;;;;;20.00;11.17;;;0.10;88.50;;;;;;5015970;28;20985;-66
2024/01/10 02:15:15;;;;;;;14.97;10.17;;;0.10;88.60;;;;;;5011967;28;20560;-66
2024/01/10 02:17:41;;;;;;;18.87;10.30;;;0.10;88.60;;;;;;5019240;28;20699;-66
2024/01/10 02:20:09;;;;;;;17.23;10.33;;;0.10;88.60;;;;;;5018885;28;20494;-66
2024/01/10 02:22:34;;;;;;;19.63;11.37;;;0.10;88.60;;;;;;5012165;28;20725;-66
2024/01/10 02:25:00;;;;;;;19.27;11.57;;;0.10;89.10;;;;;;5017526;28;20450;-66
2024/01/10 02:27:26;;;;;;;17.53;10.90;;;0.10;89.10;;;;;;5016008;28;20794;-66
2024/01/10 02:29:53;;;;;;;19.87;11.70;;;0.20;89.10;;;;;;5014359;28;21321;-66
2024/01/10 02:32:18;;;;;;;14.83;10.97;;;0.10;88.80;;;;;;5014941;28;21075;-65
2024/01/10 02:34:44;;;;;;;18.83;10.43;;;0.10;89.10;;;;;;5016536;28;20438;-66
2024/01/10 02:37:09;;;;;;;15.43;8.77;;;0.10;89.00;;;;;;5012157;28;20196;-66
2024/01/10 02:39:35;;;;;;;20.30;11.10;;;0.10;89.00;;;;;;5016369;28;20279;-66
2024/01/10 02:42:01;;;;;;;16.20;11.03;;;0.10;88.90;;;;;;5013691;28;20446;-66
2024/01/10 02:44:28;;;;;;;16.73;10.50;;;0.20;89.00;;;;;;5014568;28;20728;-66
2024/01/10 02:46:53;;;;;;;15.80;9.80;;;0.10;88.90;;;;;;5015643;28;20416;-66
2024/01/10 02:49:19;;;;;;;17.70;11.50;;;0.20;88.90;;;;;;5017373;28;20472;-66
2024/01/10 02:51:45;;;;;;;23.30;10.93;;;0.20;89.00;;;;;;5012615;28;20180;-66
2024/01/10 02:54:11;;;;;;;21.57;10.13;;;0.20;88.80;;;;;;5020210;28;20206;-66
2024/01/10 02:56:36;;;;;;;19.17;11.53;;;0.20;89.10;;;;;;5018417;28;20965;-66
2024/01/10 02:59:02;;;;;;;23.97;11.97;;;0.20;89.50;;;;;;5016966;28;20207;-66
2024/01/10 03:01:28;;;;;;;16.10;10.83;;;0.10;89.70;;;;;;5018396;28;20617;-66
2024/01/10 03:03:53;;;;;;;18.03;11.80;;;0.20;89.60;;;;;;5014012;28;21183;-66
2024/01/10 03:06:19;;;;;;;20.07;10.30;;;0.20;89.50;;;;;;5018938;28;20191;-66
2024/01/10 03:08:44;;;;;;;22.67;12.27;;;0.20;89.40;;;;;;5011660;28;20191;-66
2024/01/10 03:11:11;;;;;;;16.17;10.70;;;0.20;89.40;;;;;;5015640;28;20200;-66
2024/01/10 03:13:38;;;;;;;22.10;12.43;;;0.20;89.50;;;;;;5007584;28;20553;-66
2024/01/10 03:16:04;;;;;;;18.10;11.00;;;0.20;89.50;;;;;;5017487;28;20575;-66
2024/01/10 03:18:30;;;;;;;20.23;11.53;;;0.20;89.70;;;;;;5014240;28;20462;-66
2024/01/10 03:20:56;;;;;;;18.83;12.70;;;0.20;89.50;;;;;;5021651;28;20962;-66
2024/01/10 03:23:21;;;;;;;16.50;11.30;;;0.20;89.50;;;;;;5012611;28;20214;-66
2024/01/10 03:25:48;;;;;;;20.17;10.50;;;0.20;89.60;;;;;;5019500;28;20208;-66
2024/01/10 03:28:17;;;;;;;17.20;12.27;;;0.10;89.60;;;;;;5017801;28;20411;-66
2024/01/10 03:30:43;;;;;;;20.63;11.67;;;0.20;89.70;;;;;;5012786;28;20963;-66
2024/01/10 03:33:09;;;;;;;19.73;11.00;;;0.20;89.80;;;;;;5011333;28;20946;-66
2024/01/10 03:35:34;;;;;;;22.10;11.97;;;0.20;89.80;;;;;;5017095;28;20448;-66
2024/01/10 03:38:00;;;;;;;17.40;11.43;;;0.20;90.00;;;;;;5016028;28;20192;-66
2024/01/10 03:40:26;;;;;;;27.00;12.20;;;0.20;90.10;;;;;;5012343;28;20217;-66
2024/01/10 03:42:52;;;;;;;18.87;11.53;;;0.20;90.10;;;;;;5016562;28;20192;-66
2024/01/10 03:45:20;;;;;;;21.03;11.93;;;0.10;90.10;;;;;;5014534;28;20594;-66
2024/01/10 03:47:49;;;;;;;21.57;10.67;;;0.20;90.10;;;;;;5013044;28;20192;-67
2024/01/10 03:50:16;;;;;;;18.60;11.20;;;0.10;90.10;;;;;;5011634;28;20462;-66
2024/01/10 03:52:42;;;;;;;20.07;11.13;;;0.10;90.20;;;;;;5018246;28;20514;-66
2024/01/10 03:55:08;;;;;;;23.20;11.87;;;0.10;90.30;;;;;;5016216;28;20467;-67
2024/01/10 03:57:34;;;;;;;20.87;11.30;;;0.20;90.30;;;;;;5012046;28;20496;-67
2024/01/10 04:00:00;;;;;;;19.67;11.23;;;0.20;90.40;;;;;;5012954;28;21013;-67
2024/01/10 04:02:27;;;;;;;18.13;11.00;;;0.20;90.40;;;;;;5019097;28;20184;-66
2024/01/10 04:04:53;;;;;;;22.50;11.87;;;0.20;90.40;;;;;;5012404;28;20807;-66
2024/01/10 04:07:19;;;;;;;21.40;11.90;;;0.20;90.50;;;;;;5011699;28;20469;-66
2024/01/10 04:09:45;;;;;;;17.43;11.67;;;0.20;90.50;;;;;;5016595;28;20310;-66
2024/01/10 04:12:10;;;;;;;22.10;11.70;;;0.20;90.50;;;;;;5013803;28;20403;-66
2024/01/10 04:14:36;;;;;;;23.37;13.30;;;0.20;90.60;;;;;;5014408;28;21546;-66
2024/01/10 04:17:04;;;;;;;18.20;11.87;;;0.20;90.50;;;;;;5014412;28;20237;-66
2024/01/10 04:19:30;;;;;;;19.60;11.57;;;0.20;90.50;;;;;;5010048;28;20533;-66
2024/01/10 04:21:55;;;;;;;24.33;12.03;;;0.20;90.30;;;;;;5014164;28;20828;-66
2024/01/10 04:24:21;;;;;;;19.20;12.47;;;0.20;90.30;;;;;;5015994;28;20204;-66
2024/01/10 04:26:46;;;;;;;20.40;12.00;;;0.30;90.30;;;;;;5013841;28;20279;-67
2024/01/10 04:29:12;;;;;;;18.20;12.27;;;0.20;90.40;;;;;;5016056;28;20255;-66
2024/01/10 04:31:38;;;;;;;20.80;12.03;;;0.20;90.50;;;;;;5018735;28;20595;-66
2024/01/10 04:34:04;;;;;;;20.97;12.43;;;0.20;90.50;;;;;;5011314;28;20745;-66
2024/01/10 04:36:29;;;;;;;24.37;12.47;;;0.20;90.50;;;;;;5014219;28;20434;-66
2024/01/10 04:38:55;;;;;;;22.37;11.70;;;0.20;90.50;;;;;;5017485;28;20219;-66
2024/01/10 04:41:20;;;;;;;22.67;11.50;;;0.20;90.70;;;;;;5018950;28;20243;-65
2024/01/10 04:43:46;;;;;;;20.40;12.13;;;0.10;90.70;;;;;;5011887;28;20211;-66
2024/01/10 04:46:12;;;;;;;23.80;12.40;;;0.10;90.70;;;;;;5015628;28;20241;-66
2024/01/10 04:48:37;;;;;;;22.00;12.20;;;0.20;90.70;;;;;;5006875;28;20212;-66
2024/01/10 04:51:03;;;;;;;19.17;11.47;;;0.20;90.70;;;;;;5015789;28;20196;-66
2024/01/10 04:53:28;;;;;;;21.97;13.23;;;0.20;90.80;;;;;;5008994;28;20216;-66
2024/01/10 04:55:54;;;;;;;19.90;11.23;;;0.10;90.70;;;;;;5017708;28;20212;-66
2024/01/10 04:58:19;;;;;;;20.97;11.70;;;0.10;90.70;;;;;;5018835;28;20275;-66
2024/01/10 05:00:45;;;;;;;17.40;10.77;;;0.10;90.70;;;;;;5017709;28;20579;-66
2024/01/10 05:03:11;;;;;;;23.77;11.63;;;0.20;90.80;;;;;;5013617;28;20208;-66
2024/01/10 05:05:36;;;;;;;20.17;11.30;;;0.10;90.80;;;;;;5012808;28;20622;-66
2024/01/10 05:08:02;;;;;;;19.00;11.17;;;0.10;90.90;;;;;;5012278;28;20206;-67
2024/01/10 05:10:27;;;;;;;19.10;11.00;;;0.20;90.90;;;;;;5014849;28;20571;-66
2024/01/10 05:12:54;;;;;;;17.77;11.17;;;0.20;90.90;;;;;;5012932;28;20199;-66
2024/01/10 05:15:19;;;;;;;19.33;11.20;;;0.20;91.00;;;;;;5008350;28;20190;-66
2024/01/10 05:17:45;;;;;;;18.17;11.90;;;0.20;91.00;;;;;;5011803;28;20946;-67
2024/01/10 05:20:10;;;;;;;22.20;11.87;;;0.20;91.00;;;;;;5017569;28;20604;-66
2024/01/10 05:22:36;;;;;;;18.90;10.90;;;0.20;91.00;;;;;;5016802;28;20191;-66
2024/01/10 05:25:03;;;;;;;23.03;12.03;;;0.20;91.50;;;;;;5014111;28;20274;-66
2024/01/10 05:27:29;;;;;;;29.43;12.63;;;0.20;91.10;;;;;;5010877;28;20427;-66
2024/01/10 05:29:54;;;;;;;17.47;11.27;;;0.20;91.30;;;;;;5016059;28;20477;-66
2024/01/10 05:32:20;;;;;;;21.93;12.30;;;0.10;91.30;;;;;;5011982;28;20199;-66
2024/01/10 05:34:45;;;;;;;21.40;12.20;;;0.20;91.30;;;;;;5013249;28;20204;-66
2024/01/10 05:37:11;;;;;;;21.00;12.07;;;0.10;91.40;;;;;;5016140;28;20211;-66
2024/01/10 05:39:37;;;;;;;22.17;11.83;;;0.10;91.40;;;;;;5008340;28;20253;-66
2024/01/10 05:42:02;;;;;;;24.60;11.80;;;0.10;91.40;;;;;;5011250;28;20188;-66
2024/01/10 05:44:29;;;;;;;19.43;12.37;;;0.10;91.40;;;;;;5012580;28;20601;-67
2024/01/10 05:46:54;;;;;;;24.03;13.80;;;0.10;91.50;;;;;;5017194;28;20445;-66
2024/01/10 05:49:22;;;;;;;20.97;13.17;;;0.10;91.50;;;;;;5021624;28;20430;-66
2024/01/10 05:51:47;;;;;;;20.90;11.70;;;0.10;91.50;;;;;;5015800;28;20881;-66
2024/01/10 05:54:13;;;;;;;22.30;12.17;;;0.00;91.60;;;;;;5012009;28;22132;-66
2024/01/10 05:56:38;;;;;;;23.93;14.00;;;0.00;91.80;;;;;;5021867;28;20275;-66
2024/01/10 05:59:04;;;;;;;19.73;11.97;;;0.00;91.80;;;;;;5012690;28;20193;-66
2024/01/10 06:01:29;;;;;;;20.13;11.90;;;0.00;91.80;;;;;;5015890;28;20764;-66
2024/01/10 06:03:56;;;;;;;21.53;11.83;;;-0.10;91.80;;;;;;5018303;28;20208;-66
2024/01/10 06:06:21;;;;;;;19.80;12.83;;;-0.10;91.90;;;;;;5017486;28;20279;-65
2024/01/10 06:08:47;;;;;;;25.77;12.87;;;-0.10;92.00;;;;;;5010776;28;21101;-65
2024/01/10 06:11:13;;;;;;;19.97;11.77;;;-0.10;92.00;;;;;;5020096;28;20202;-66
2024/01/10 06:13:38;;;;;;;19.13;12.87;;;-0.10;92.10;;;;;;5015349;28;20284;-66
2024/01/10 06:16:04;;;;;;;21.73;11.47;;;-0.10;92.20;;;;;;5014948;28;20199;-67
2024/01/10 06:18:30;;;;;;;20.63;12.83;;;-0.20;92.20;;;;;;5018538;28;20255;-66
2024/01/10 06:20:55;;;;;;;23.93;12.27;;;-0.20;92.30;;;;;;5021766;28;20477;-66
2024/01/10 06:23:21;;;;;;;21.90;11.93;;;-0.20;92.40;;;;;;5018985;28;20207;-66
2024/01/10 06:25:46;;;;;;;24.13;13.10;;;-0.20;92.50;;;;;;5014591;28;20307;-66
2024/01/10 06:28:12;;;;;;;18.20;10.67;;;-0.30;92.60;;;;;;5020488;28;20175;-66
2024/01/10 06:30:38;;;;;;;19.23;11.30;;;-0.30;92.80;;;;;;5019727;28;20191;-66
2024/01/10 06:33:06;;;;;;;22.60;13.20;;;-0.30;92.80;;;;;;5013273;28;20271;-66
2024/01/10 06:35:32;;;;;;;21.10;11.53;;;-0.30;92.90;;;;;;5014826;28;20203;-66
2024/01/10 06:37:57;;;;;;;20.83;10.60;;;-0.30;93.00;;;;;;5018057;28;20480;-66
2024/01/10 06:40:23;;;;;;;20.20;12.00;;;-0.30;93.00;;;;;;5024371;28;20218;-66
2024/01/10 06:42:48;;;;;;;27.60;13.60;;;-0.30;93.20;;;;;;5016841;28;20208;-66
2024/01/10 06:45:14;;;;;;;22.07;12.47;;;-0.40;93.30;;;;;;5018755;28;20194;-66
2024/01/10 06:47:40;;;;;;;21.97;11.30;;;-0.30;93.40;;;;;;5015033;28;20183;-66
2024/01/10 06:50:06;;;;;;;22.57;11.83;;;-0.30;93.40;;;;;;5011147;28;22174;-66
2024/01/10 06:52:32;;;;;;;22.77;11.77;;;-0.30;93.40;;;;;;5019739;28;20204;-66
2024/01/10 06:54:57;;;;;;;26.33;12.57;;;-0.30;93.50;;;;;;5013419;28;20550;-66
2024/01/10 06:57:23;;;;;;;21.37;11.20;;;-0.20;93.60;;;;;;5013617;28;21453;-66
2024/01/10 06:59:49;;;;;;;22.00;13.13;;;-0.30;93.60;;;;;;5017567;28;20218;-66
2024/01/10 07:02:15;;;;;;;22.77;12.40;;;-0.20;93.70;;;;;;5020115;28;20854;-66
2024/01/10 07:04:40;;;;;;;23.20;11.93;;;-0.30;93.60;;;;;;5020509;28;20445;-67
2024/01/10 07:07:08;;;;;;;19.80;11.97;;;-0.30;93.70;;;;;;5012512;28;20817;-67
2024/01/10 07:09:34;;;;;;;19.57;12.90;;;-0.30;93.80;;;;;;5010822;28;20189;-66
2024/01/10 07:11:59;;;;;;;27.53;13.87;;;-0.30;93.80;;;;;;5012695;28;20433;-66
2024/01/10 07:14:25;;;;;;;21.27;12.13;;;-0.30;93.90;;;;;;5015334;28;20701;-66
2024/01/10 07:16:51;;;;;;;21.40;12.20;;;-0.30;94.10;;;;;;5013718;28;20207;-66
2024/01/10 07:19:17;;;;;;;24.40;13.60;;;-0.30;94.30;;;;;;5014585;28;20190;-65
2024/01/10 07:21:43;;;;;;;19.40;11.90;;;-0.30;94.20;;;;;;5016221;28;20430;-65
2024/01/10 07:24:09;;;;;;;19.33;12.73;;;-0.40;94.40;;;;;;5012950;28;20536;-66
2024/01/10 07:26:36;;;;;;;20.83;11.60;;;-0.40;94.50;;;;;;5018274;28;20446;-65
2024/01/10 07:29:02;;;;;;;26.87;13.27;;;-0.40;94.90;;;;;;5013556;28;20442;-66
2024/01/10 07:31:29;;;;;;;21.57;13.20;;;-0.40;95.00;;;;;;5021303;28;20599;-65
2024/01/10 07:33:56;;;;;;;28.13;13.33;;;-0.40;94.60;;;;;;5017712;28;20486;-66
2024/01/10 07:36:29;;;;;;;21.00;12.03;;;-0.30;94.60;;;;;;5012450;28;20553;-66
2024/01/10 07:38:58;;;;;;;27.30;13.90;;;-0.30;94.70;;;;;;5018311;28;20527;-67
2024/01/10 07:41:23;;;;;;;22.87;12.07;;;-0.30;94.70;;;;;;5014775;28;21045;-66
2024/01/10 07:43:49;;;;;;;24.13;13.00;;;-0.30;94.80;;;;;;5011386;28;20443;-66
2024/01/10 07:46:15;;;;;;;25.67;14.93;;;-0.30;94.80;;;;;;5015829;28;20238;-67
2024/01/10 07:48:40;;;;;;;23.50;13.70;;;-0.30;95.00;;;;;;5013604;28;20298;-66
2024/01/10 07:51:06;;;;;;;27.73;13.07;;;-0.30;95.10;;;;;;5017411;28;20669;-66
2024/01/10 07:53:33;;;;;;;22.20;12.33;;;-0.30;95.10;;;;;;5016707;28;20618;-65
2024/01/10 07:55:59;;;;;;;21.47;12.20;;;-0.30;95.10;;;;;;5018773;28;21011;-65
2024/01/10 07:58:24;;;;;;;22.03;11.93;;;-0.30;95.00;;;;;;5013466;28;20449;-66
2024/01/10 08:00:51;;;;;;;23.17;12.40;;;-0.30;95.00;;;;;;5014199;28;20463;-66
2024/01/10 08:03:16;;;;;;;21.50;12.60;;;-0.30;95.10;;;;;;5017465;28;20202;-66
2024/01/10 08:05:42;;;;;;;21.80;13.13;;;-0.30;95.10;;;;;;5017945;28;20799;-66
2024/01/10 08:08:09;;;;;;;25.17;12.87;;;-0.30;95.10;;;;;;5022059;28;20244;-66
2024/01/10 08:10:34;;;;;;;21.23;13.50;;;-0.30;95.30;;;;;;5014414;28;20564;-66
2024/01/10 08:13:00;;;;;;;23.23;14.10;;;-0.20;95.40;;;;;;5015454;28;20981;-66
2024/01/10 08:15:26;;;;;;;25.77;14.17;;;-0.30;95.30;;;;;;5015345;28;20183;-65
2024/01/10 08:17:52;;;;;;;22.43;12.37;;;-0.20;95.40;;;;;;5013637;28;20949;-66
2024/01/10 08:20:20;;;;;;;21.20;12.90;;;-0.20;95.50;;;;;;5008891;28;20755;-67
2024/01/10 08:22:47;;;;;;;28.63;14.57;;;-0.20;95.40;;;;;;5016453;28;20967;-67
2024/01/10 08:25:15;;;;;;;25.57;15.80;;;-0.20;95.50;;;;;;5009319;28;20983;-67
2024/01/10 08:27:41;;;;;;;22.03;13.20;;;-0.20;95.50;;;;;;5008384;28;20434;-67
2024/01/10 08:30:09;;;;;;;23.07;12.20;;;-0.20;95.50;;;;;;5006358;28;20442;-66
2024/01/10 08:32:36;;;;;;;20.13;12.20;;;-0.20;95.50;;;;;;5012869;28;20198;-67
2024/01/10 08:35:04;;;;;;;25.83;12.77;;;-0.10;95.60;;;;;;5016751;28;20437;-67
2024/01/10 08:37:30;;;;;;;20.70;12.83;;;-0.10;95.60;;;;;;5021200;28;20502;-66
2024/01/10 08:39:57;;;;;;;25.83;12.70;;;0.00;95.70;;;;;;5018612;28;22485;-67
2024/01/10 08:42:22;;;;;;;20.40;12.30;;;0.00;95.80;;;;;;5017242;28;21047;-66
2024/01/10 08:44:49;;;;;;;26.07;13.70;;;0.10;96.00;;;;;;5017496;28;20494;-66
2024/01/10 08:47:15;;;;;;;25.40;13.33;;;0.20;96.00;;;;;;5018501;28;20172;-67
2024/01/10 08:49:40;;;;;;;24.57;13.30;;;0.20;96.00;;;;;;5020772;28;20437;-66
2024/01/10 08:52:06;;;;;;;25.77;13.53;;;0.30;96.00;;;;;;5018811;28;20550;-66
2024/01/10 08:54:31;;;;;;;21.03;13.20;;;0.40;95.90;;;;;;5020903;28;20293;-66
2024/01/10 08:56:58;;;;;;;19.23;12.47;;;0.40;95.80;;;;;;5017944;28;20766;-66
2024/01/10 08:59:24;;;;;;;26.60;14.97;;;0.40;95.70;;;;;;5012807;28;20181;-66
2024/01/10 09:01:49;;;;;;;22.07;13.87;;;0.50;95.70;;;;;;5014215;28;20525;-68
2024/01/10 09:04:15;;;;;;;20.30;12.53;;;0.50;95.60;;;;;;5013266;28;20954;-67
2024/01/10 09:06:40;;;;;;;24.73;13.10;;;0.50;95.50;;;;;;5014024;28;20661;-67
2024/01/10 09:09:06;;;;;;;21.80;13.00;;;0.50;95.50;;;;;;5013050;28;20183;-66
2024/01/10 09:11:33;;;;;;;20.97;12.80;;;0.50;95.50;;;;;;5002063;28;20438;-67
2024/01/10 09:13:59;;;;;;;27.10;14.20;;;0.50;95.50;;;;;;5013532;28;22472;-66
2024/01/10 09:16:24;;;;;;;28.73;16.67;;;0.50;95.50;;;;;;5016066;28;20424;-66
2024/01/10 09:18:53;;;;;;;25.00;13.80;;;0.60;95.60;;;;;;5008254;28;20187;-66
2024/01/10 09:21:20;;;;;;;25.30;14.80;;;0.60;95.60;;;;;;5009597;28;20208;-67
2024/01/10 09:23:47;;;;;;;23.23;13.30;;;0.60;95.60;;;;;;5005032;28;20804;-67
2024/01/10 09:26:13;;;;;;;24.07;14.00;;;0.60;95.70;;;;;;5008917;28;20418;-68
2024/01/10 09:28:40;;;;;;;23.30;14.73;;;0.60;95.70;;;;;;5014004;28;20431;-70
2024/01/10 09:31:07;;;;;;;23.67;13.70;;;0.70;95.70;;;;;;5015845;28;20230;-68
2024/01/10 09:33:33;;;;;;;23.00;14.70;;;0.70;95.70;;;;;;5020874;28;21003;-69
2024/01/10 09:35:59;;;;;;;23.73;13.47;;;0.70;95.70;;;;;;5017017;28;20990;-68
2024/01/10 09:38:25;;;;;;;21.33;14.80;;;0.70;95.70;;;;;;5022696;28;20442;-68
2024/01/10 09:40:55;;;;;;;23.67;15.30;;;0.80;95.80;;;;;;5015956;28;20690;-69
2024/01/10 09:43:21;;;;;;;27.30;14.40;;;0.80;95.70;;;;;;5015281;28;20206;-69
2024/01/10 09:45:49;;;;;;;20.93;13.03;;;0.80;95.60;;;;;;5014788;28;20455;-69
2024/01/10 09:48:15;;;;;;;23.10;13.03;;;0.80;95.40;;;;;;5011863;28;20411;-68
2024/01/10 09:50:41;;;;;;;26.47;15.03;;;0.80;95.60;;;;;;5015158;28;20443;-69
2024/01/10 09:53:12;;;;;;;23.93;14.60;;;0.80;95.60;;;;;;5017374;28;20546;-69
2024/01/10 09:55:38;;;;;;;33.10;13.63;;;0.90;95.50;;;;;;5021636;28;20422;-69
2024/01/10 09:58:10;;;;;;;23.80;13.67;;;0.90;95.50;;;;;;5014731;28;20414;-69
2024/01/10 10:00:36;;;;;;;21.80;13.97;;;0.90;95.40;;;;;;5009959;28;20460;-69
2024/01/10 10:03:10;;;;;;;24.93;14.57;;;0.90;95.40;;;;;;5008454;28;20423;-69
2024/01/10 10:05:37;;;;;;;28.23;15.13;;;1.00;95.30;;;;;;5015270;28;20512;-69
2024/01/10 10:08:03;;;;;;;23.93;13.97;;;1.00;95.40;;;;;;5013490;28;20538;-69
2024/01/10 10:10:29;;;;;;;25.00;14.97;;;1.00;95.30;;;;;;5012731;28;20883;-69
2024/01/10 10:12:54;;;;;;;25.50;14.77;;;1.00;95.30;;;;;;5009194;28;20450;-69
2024/01/10 10:15:22;;;;;;;25.40;14.70;;;1.10;95.30;;;;;;5017168;28;20191;-68
2024/01/10 10:17:49;;;;;;;23.60;14.90;;;1.10;95.20;;;;;;5015809;28;20179;-68
2024/01/10 10:20:24;;;;;;;28.17;16.10;;;1.10;95.20;;;;;;5013098;28;20464;-68
2024/01/10 10:23:07;;;;;;;25.20;15.50;;;1.10;95.20;;;;;;5005326;28;20493;-68
2024/01/10 10:25:38;;;;;;;23.23;15.30;;;1.10;95.30;;;;;;5012327;28;20416;-69
2024/01/10 10:28:04;;;;;;;25.10;15.60;;;1.20;95.20;;;;;;5008396;28;20438;-70
2024/01/10 10:30:33;;;;;;;21.10;13.40;;;1.20;95.30;;;;;;5007721;28;20443;-68
2024/01/10 10:32:59;;;;;;;24.07;14.27;;;1.20;95.20;;;;;;5013888;28;20442;-69
2024/01/10 10:35:24;;;;;;;25.37;14.93;;;1.20;95.20;;;;;;5012578;28;20420;-69
2024/01/10 10:37:52;;;;;;;23.57;14.60;;;1.20;95.20;;;;;;5019545;28;20287;-69
2024/01/10 10:40:18;;;;;;;24.93;14.77;;;1.30;95.30;;;;;;5021866;28;20218;-69
2024/01/10 10:42:47;;;;;;;26.23;15.17;;;1.30;95.30;;;;;;5017904;28;20438;-69
2024/01/10 10:45:19;;;;;;;23.67;14.37;;;1.40;95.30;;;;;;5025654;28;20473;-69
2024/01/10 10:47:49;;;;;;;22.43;14.67;;;1.40;95.30;;;;;;5021171;28;20442;-68
2024/01/10 10:50:25;;;;;;;32.37;16.30;;;1.50;95.40;;;;;;5013041;28;20494;-68
2024/01/10 10:52:51;;;;;;;25.00;15.30;;;1.60;95.40;;;;;;5017754;28;20939;-69
2024/01/10 10:55:19;;;;;;;28.50;17.20;;;1.60;95.30;;;;;;5013845;28;20516;-68
2024/01/10 10:57:46;;;;;;;23.40;15.30;;;1.70;95.30;;;;;;5014672;28;20844;-69
2024/01/10 11:00:15;;;;;;;25.80;15.57;;;1.80;95.30;;;;;;5016454;28;20464;-68
2024/01/10 11:02:41;;;;;;;23.63;15.83;;;1.90;95.20;;;;;;5012948;28;20434;-69
2024/01/10 11:05:09;;;;;;;22.97;15.20;;;2.00;95.10;;;;;;5015890;28;20448;-68
2024/01/10 11:07:39;;;;;;;27.63;16.80;;;2.10;95.00;;;;;;5024799;28;20912;-68
2024/01/10 11:10:24;;;;;;;29.40;15.50;;;2.10;94.90;;;;;;5012498;28;20419;-69
2024/01/10 11:12:56;;;;;;;36.50;20.00;;;2.20;94.70;;;;;;5010147;28;20959;-69
2024/01/10 11:15:40;;;;;;;31.03;17.60;;;2.30;94.50;;;;;;5012394;28;20416;-68
2024/01/10 11:18:15;;;;;;;32.17;19.07;;;2.30;94.40;;;;;;5015870;28;20431;-69
2024/01/10 11:21:29;;;;;;;31.20;17.43;;;2.30;94.40;;;;;;5014721;28;20473;-69
2024/01/10 11:23:58;;;;;;;29.53;15.60;;;2.30;94.40;;;;;;5012932;28;20831;-69
2024/01/10 11:26:24;;;;;;;25.23;15.43;;;2.30;94.30;;;;;;5013536;28;20439;-69
2024/01/10 11:28:50;;;;;;;24.03;15.90;;;2.40;94.30;;;;;;5010068;28;20518;-68
2024/01/10 11:31:28;;;;;;;25.67;17.23;;;2.40;94.10;;;;;;5011851;28;20431;-69
2024/01/10 11:33:55;;;;;;;31.33;18.00;;;2.40;94.20;;;;;;5018357;28;20442;-69
2024/01/10 11:36:24;;;;;;;27.67;17.90;;;2.50;94.20;;;;;;5014187;28;20526;-69
2024/01/10 11:39:01;;;;;;;29.23;18.03;;;2.50;94.20;;;;;;5016830;28;20458;-70
2024/01/10 11:41:31;;;;;;;33.80;17.43;;;2.60;94.10;;;;;;5009796;28;20495;-70
2024/01/10 11:44:18;;;;;;;26.37;16.13;;;2.60;94.10;;;;;;5010426;28;21127;-70
2024/01/10 11:46:47;;;;;;;28.67;18.97;;;2.70;94.10;;;;;;5016416;28;20457;-70
2024/01/10 11:49:18;;;;;;;33.20;16.90;;;2.70;94.00;;;;;;5015314;28;20415;-71
2024/01/10 11:51:53;;;;;;;29.80;17.00;;;2.80;94.00;;;;;;5020772;28;20430;-69
2024/01/10 11:54:42;;;;;;;27.60;17.37;;;2.90;93.90;;;;;;5015861;28;20790;-71
2024/01/10 11:57:12;;;;;;;31.70;17.87;;;2.90;93.90;;;;;;5013219;28;21200;-70
2024/01/10 11:59:43;;;;;;;29.40;17.13;;;3.10;94.00;;;;;;5013898;28;20487;-70
2024/01/10 12:02:08;;;;;;;25.90;17.43;;;3.20;93.90;;;;;;5011908;28;20455;-69
2024/01/10 12:04:34;;;;;;;25.47;16.63;;;3.40;93.80;;;;;;5018256;28;20423;-69
2024/01/10 12:07:06;;;;;;;30.10;18.60;;;4.00;94.20;;;;;;5013267;28;20273;-69
2024/01/10 12:09:32;;;;;;;25.93;18.17;;;4.80;93.80;;;;;;5012906;28;20180;-69
2024/01/10 12:11:58;;;;;;;26.97;17.97;;;5.40;93.20;;;;;;5016686;28;20428;-66
2024/01/10 12:14:24;;;;;;;26.37;17.40;;;5.80;92.50;;;;;;5017103;28;20532;-66
2024/01/10 12:16:52;;;;;;;29.90;17.93;;;6.20;91.30;;;;;;5017307;28;20447;-66
2024/01/10 12:19:18;;;;;;;34.20;19.23;;;6.90;90.80;;;;;;5016614;28;20181;-64
2024/01/10 12:21:44;;;;;;;24.03;17.63;;;7.30;89.50;;;;;;5013999;28;20960;-65
2024/01/10 12:24:09;;;;;;;27.97;19.33;;;7.70;88.40;;;;;;5012188;28;20439;-66
2024/01/10 12:26:36;;;;;;;27.50;18.80;;;8.10;87.00;;;;;;5020229;28;20195;-65
2024/01/10 12:29:04;;;;;;;27.80;19.77;;;9.20;87.60;;;;;;5012007;28;20220;-66
2024/01/10 12:31:30;;;;;;;23.23;18.50;;;10.50;84.10;;;;;;5019704;28;20435;-65
2024/01/10 12:33:56;;;;;;;28.30;20.03;;;11.70;80.30;;;;;;5012351;28;20441;-67